sensor_id;sensor_type;location;lat;lon;timestamp;temperature;humidity
9951;DHT22;24074;49.254;6.702;2023-11-19T00:01:36;9.50;99.90
9951;DHT22;24074;49.254;6.702;2023-11-19T00:04:02;9.50;99.90
9951;DHT22;24074;49.254;6.702;2023-11-19T00:06:30;9.60;99.90
9951;DHT22;24074;49.254;6.702;2023-11-19T00:08:55;9.60;99.90
9951;DHT22;24074;49.254;6.702;2023-11-19T00:11:21;9.70;99.90
9951;DHT22;24074;49.254;6.702;2023-11-19T00:13:47;9.70;99.90
9951;DHT22;24074;49.254;6.702;2023-11-19T00:16:12;9.70;99.90
9951;DHT22;24074;49.254;6.702;2023-11-19T00:18:38;9.70;99.90
9951;DHT22;24074;49.254;6.702;2023-11-19T00:21:03;9.80;99.90
9951;DHT22;24074;49.254;6.702;2023-11-19T00:23:29;9.80;99.90
9951;DHT22;24074;49.254;6.702;2023-11-19T00:25:55;9.80;99.90
9951;DHT22;24074;49.254;6.702;2023-11-19T00:28:20;9.90;99.90
9951;DHT22;24074;49.254;6.702;2023-11-19T00:30:46;10.00;99.90
9951;DHT22;24074;49.254;6.702;2023-11-19T00:33:11;10.00;99.90
9951;DHT22;24074;49.254;6.702;2023-11-19T00:35:37;10.00;99.90
9951;DHT22;24074;49.254;6.702;2023-11-19T00:38:05;10.00;99.90
9951;DHT22;24074;49.254;6.702;2023-11-19T00:40:31;10.00;99.90
9951;DHT22;24074;49.254;6.702;2023-11-19T00:42:57;10.00;99.90
9951;DHT22;24074;49.254;6.702;2023-11-19T00:45:22;10.10;99.90
9951;DHT22;24074;49.254;6.702;2023-11-19T00:47:48;10.10;99.90
9951;DHT22;24074;49.254;6.702;2023-11-19T00:50:14;10.10;99.90
9951;DHT22;24074;49.254;6.702;2023-11-19T00:52:40;10.10;99.90
9951;DHT22;24074;49.254;6.702;2023-11-19T00:55:06;10.10;99.90
9951;DHT22;24074;49.254;6.702;2023-11-19T00:57:32;10.10;99.90
9951;DHT22;24074;49.254;6.702;2023-11-19T00:59:58;10.10;99.90
9951;DHT22;24074;49.254;6.702;2023-11-19T01:02:24;10.20;99.90
9951;DHT22;24074;49.254;6.702;2023-11-19T01:04:50;10.10;99.90
9951;DHT22;24074;49.254;6.702;2023-11-19T01:07:15;10.20;99.90
9951;DHT22;24074;49.254;6.702;2023-11-19T01:09:42;10.20;99.90
9951;DHT22;24074;49.254;6.702;2023-11-19T01:12:08;10.20;99.90
9951;DHT22;24074;49.254;6.702;2023-11-19T01:14:34;10.30;99.90
9951;DHT22;24074;49.254;6.702;2023-11-19T01:17:00;10.20;99.90
9951;DHT22;24074;49.254;6.702;2023-11-19T01:19:26;10.30;99.90
9951;DHT22;24074;49.254;6.702;2023-11-19T01:21:54;10.30;99.90
9951;DHT22;24074;49.254;6.702;2023-11-19T01:24:20;10.30;99.90
9951;DHT22;24074;49.254;6.702;2023-11-19T01:26:46;10.30;99.90
9951;DHT22;24074;49.254;6.702;2023-11-19T01:29:15;10.30;99.90
9951;DHT22;24074;49.254;6.702;2023-11-19T01:31:46;10.30;99.90
9951;DHT22;24074;49.254;6.702;2023-11-19T01:34:12;10.40;99.90
9951;DHT22;24074;49.254;6.702;2023-11-19T01:36:38;10.40;99.90
9951;DHT22;24074;49.254;6.702;2023-11-19T01:39:04;10.40;99.90
9951;DHT22;24074;49.254;6.702;2023-11-19T01:41:34;10.40;99.90
9951;DHT22;24074;49.254;6.702;2023-11-19T01:44:03;10.50;99.90
9951;DHT22;24074;49.254;6.702;2023-11-19T01:46:30;10.50;99.90
9951;DHT22;24074;49.254;6.702;2023-11-19T01:48:58;10.60;99.90
9951;DHT22;24074;49.254;6.702;2023-11-19T01:51:24;10.60;99.90
9951;DHT22;24074;49.254;6.702;2023-11-19T01:53:50;10.60;99.90
9951;DHT22;24074;49.254;6.702;2023-11-19T01:56:16;10.60;99.90
9951;DHT22;24074;49.254;6.702;2023-11-19T01:58:43;10.70;99.90
9951;DHT22;24074;49.254;6.702;2023-11-19T02:01:10;10.80;99.90
9951;DHT22;24074;49.254;6.702;2023-11-19T02:03:36;10.80;99.90
9951;DHT22;24074;49.254;6.702;2023-11-19T02:06:03;10.90;99.90
9951;DHT22;24074;49.254;6.702;2023-11-19T02:08:29;10.90;99.90
9951;DHT22;24074;49.254;6.702;2023-11-19T02:10:55;10.90;99.90
9951;DHT22;24074;49.254;6.702;2023-11-19T02:13:27;10.90;99.90
9951;DHT22;24074;49.254;6.702;2023-11-19T02:15:54;11.00;99.90
9951;DHT22;24074;49.254;6.702;2023-11-19T02:18:27;11.00;99.90
9951;DHT22;24074;49.254;6.702;2023-11-19T02:20:54;11.00;99.90
9951;DHT22;24074;49.254;6.702;2023-11-19T02:23:20;11.00;99.90
9951;DHT22;24074;49.254;6.702;2023-11-19T02:28:39;11.10;99.90
9951;DHT22;24074;49.254;6.702;2023-11-19T02:31:05;11.10;99.90
9951;DHT22;24074;49.254;6.702;2023-11-19T02:33:35;11.10;99.90
9951;DHT22;24074;49.254;6.702;2023-11-19T02:36:02;11.10;99.90
9951;DHT22;24074;49.254;6.702;2023-11-19T02:38:29;11.10;99.90
9951;DHT22;24074;49.254;6.702;2023-11-19T02:40:56;11.10;99.90
9951;DHT22;24074;49.254;6.702;2023-11-19T02:43:22;11.20;99.90
9951;DHT22;24074;49.254;6.702;2023-11-19T02:45:48;11.20;99.90
9951;DHT22;24074;49.254;6.702;2023-11-19T02:48:13;11.20;99.90
9951;DHT22;24074;49.254;6.702;2023-11-19T02:50:44;11.10;99.90
9951;DHT22;24074;49.254;6.702;2023-11-19T02:53:09;11.20;99.90
9951;DHT22;24074;49.254;6.702;2023-11-19T02:55:36;11.20;99.90
9951;DHT22;24074;49.254;6.702;2023-11-19T02:58:04;11.20;99.90
9951;DHT22;24074;49.254;6.702;2023-11-19T03:00:45;11.30;99.90
9951;DHT22;24074;49.254;6.702;2023-11-19T03:03:19;11.30;99.90
9951;DHT22;24074;49.254;6.702;2023-11-19T03:05:48;11.30;99.90
9951;DHT22;24074;49.254;6.702;2023-11-19T03:08:17;11.40;99.90
9951;DHT22;24074;49.254;6.702;2023-11-19T03:10:43;11.40;99.90
9951;DHT22;24074;49.254;6.702;2023-11-19T03:13:12;11.40;99.90
9951;DHT22;24074;49.254;6.702;2023-11-19T03:15:39;11.40;99.90
9951;DHT22;24074;49.254;6.702;2023-11-19T03:18:05;11.50;99.90
9951;DHT22;24074;49.254;6.702;2023-11-19T03:20:30;11.50;99.90
9951;DHT22;24074;49.254;6.702;2023-11-19T03:22:56;11.50;99.90
9951;DHT22;24074;49.254;6.702;2023-11-19T03:25:25;11.50;99.90
9951;DHT22;24074;49.254;6.702;2023-11-19T03:27:52;11.50;99.90
9951;DHT22;24074;49.254;6.702;2023-11-19T03:30:18;11.50;99.90
9951;DHT22;24074;49.254;6.702;2023-11-19T03:32:46;11.50;99.90
9951;DHT22;24074;49.254;6.702;2023-11-19T03:35:12;11.60;99.90
9951;DHT22;24074;49.254;6.702;2023-11-19T03:37:37;11.60;99.90
9951;DHT22;24074;49.254;6.702;2023-11-19T03:40:05;11.60;99.90
9951;DHT22;24074;49.254;6.702;2023-11-19T03:42:31;11.60;99.90
9951;DHT22;24074;49.254;6.702;2023-11-19T03:44:56;11.70;99.90
9951;DHT22;24074;49.254;6.702;2023-11-19T03:47:22;11.70;99.90
9951;DHT22;24074;49.254;6.702;2023-11-19T03:49:51;11.70;99.90
9951;DHT22;24074;49.254;6.702;2023-11-19T03:52:18;11.70;99.90
9951;DHT22;24074;49.254;6.702;2023-11-19T03:54:44;11.80;99.90
9951;DHT22;24074;49.254;6.702;2023-11-19T03:57:11;11.80;99.90
9951;DHT22;24074;49.254;6.702;2023-11-19T03:59:37;11.90;99.90
9951;DHT22;24074;49.254;6.702;2023-11-19T04:02:03;11.90;99.90
9951;DHT22;24074;49.254;6.702;2023-11-19T04:04:29;11.90;99.90
9951;DHT22;24074;49.254;6.702;2023-11-19T04:06:57;11.90;99.90
9951;DHT22;24074;49.254;6.702;2023-11-19T04:09:24;12.00;99.90
9951;DHT22;24074;49.254;6.702;2023-11-19T04:11:49;12.00;99.90
9951;DHT22;24074;49.254;6.702;2023-11-19T04:14:15;12.00;99.90
9951;DHT22;24074;49.254;6.702;2023-11-19T04:16:44;11.90;99.90
9951;DHT22;24074;49.254;6.702;2023-11-19T04:19:10;12.00;99.90
9951;DHT22;24074;49.254;6.702;2023-11-19T04:21:35;12.00;99.90
9951;DHT22;24074;49.254;6.702;2023-11-19T04:24:04;12.00;99.90
9951;DHT22;24074;49.254;6.702;2023-11-19T04:26:29;12.00;99.90
9951;DHT22;24074;49.254;6.702;2023-11-19T04:28:56;12.00;99.90
9951;DHT22;24074;49.254;6.702;2023-11-19T04:31:22;12.10;99.90
9951;DHT22;24074;49.254;6.702;2023-11-19T04:33:47;12.10;99.90
9951;DHT22;24074;49.254;6.702;2023-11-19T04:36:13;12.10;99.90
9951;DHT22;24074;49.254;6.702;2023-11-19T04:38:39;12.10;99.90
9951;DHT22;24074;49.254;6.702;2023-11-19T04:41:05;12.10;99.90
9951;DHT22;24074;49.254;6.702;2023-11-19T04:43:34;12.20;99.90
9951;DHT22;24074;49.254;6.702;2023-11-19T04:46:00;12.20;99.90
9951;DHT22;24074;49.254;6.702;2023-11-19T04:48:25;12.20;99.90
9951;DHT22;24074;49.254;6.702;2023-11-19T04:50:51;12.20;99.90
9951;DHT22;24074;49.254;6.702;2023-11-19T04:53:18;12.20;99.90
9951;DHT22;24074;49.254;6.702;2023-11-19T04:55:43;12.30;99.90
9951;DHT22;24074;49.254;6.702;2023-11-19T04:58:09;12.30;99.90
9951;DHT22;24074;49.254;6.702;2023-11-19T05:00:37;12.30;99.90
9951;DHT22;24074;49.254;6.702;2023-11-19T05:03:02;12.40;99.90
9951;DHT22;24074;49.254;6.702;2023-11-19T05:05:28;12.30;99.90
9951;DHT22;24074;49.254;6.702;2023-11-19T05:07:54;12.40;99.90
9951;DHT22;24074;49.254;6.702;2023-11-19T05:10:20;12.30;99.90
9951;DHT22;24074;49.254;6.702;2023-11-19T05:12:46;12.30;99.90
9951;DHT22;24074;49.254;6.702;2023-11-19T05:15:12;12.40;99.90
9951;DHT22;24074;49.254;6.702;2023-11-19T05:17:38;12.40;99.90
9951;DHT22;24074;49.254;6.702;2023-11-19T05:20:04;12.40;99.90
9951;DHT22;24074;49.254;6.702;2023-11-19T05:22:30;12.40;99.90
9951;DHT22;24074;49.254;6.702;2023-11-19T05:24:56;12.40;99.90
9951;DHT22;24074;49.254;6.702;2023-11-19T05:27:21;12.40;99.90
9951;DHT22;24074;49.254;6.702;2023-11-19T05:29:49;12.40;99.90
9951;DHT22;24074;49.254;6.702;2023-11-19T05:32:14;12.30;99.90
9951;DHT22;24074;49.254;6.702;2023-11-19T05:34:40;12.40;99.90
9951;DHT22;24074;49.254;6.702;2023-11-19T05:37:05;12.40;99.90
9951;DHT22;24074;49.254;6.702;2023-11-19T05:39:31;12.40;99.90
9951;DHT22;24074;49.254;6.702;2023-11-19T05:41:57;12.40;99.90
9951;DHT22;24074;49.254;6.702;2023-11-19T05:44:22;12.40;99.90
9951;DHT22;24074;49.254;6.702;2023-11-19T05:46:48;12.40;99.90
9951;DHT22;24074;49.254;6.702;2023-11-19T05:49:13;12.40;99.90
9951;DHT22;24074;49.254;6.702;2023-11-19T05:51:39;12.40;99.90
9951;DHT22;24074;49.254;6.702;2023-11-19T05:54:09;12.40;99.90
9951;DHT22;24074;49.254;6.702;2023-11-19T05:56:35;12.30;99.90
9951;DHT22;24074;49.254;6.702;2023-11-19T05:59:01;12.30;99.90
9951;DHT22;24074;49.254;6.702;2023-11-19T06:01:31;12.30;99.90
9951;DHT22;24074;49.254;6.702;2023-11-19T06:03:56;12.30;99.90
9951;DHT22;24074;49.254;6.702;2023-11-19T06:06:22;12.30;99.90
9951;DHT22;24074;49.254;6.702;2023-11-19T06:08:47;12.30;99.90
9951;DHT22;24074;49.254;6.702;2023-11-19T06:11:14;12.30;99.90
9951;DHT22;24074;49.254;6.702;2023-11-19T06:13:44;12.40;99.90
9951;DHT22;24074;49.254;6.702;2023-11-19T06:16:09;12.40;99.90
9951;DHT22;24074;49.254;6.702;2023-11-19T06:18:36;12.40;99.90
9951;DHT22;24074;49.254;6.702;2023-11-19T06:21:02;12.40;99.90
9951;DHT22;24074;49.254;6.702;2023-11-19T06:23:28;12.40;99.90
9951;DHT22;24074;49.254;6.702;2023-11-19T06:25:53;12.40;99.90
9951;DHT22;24074;49.254;6.702;2023-11-19T06:28:19;12.50;99.90
9951;DHT22;24074;49.254;6.702;2023-11-19T06:30:45;12.40;99.90
9951;DHT22;24074;49.254;6.702;2023-11-19T06:33:14;12.40;99.90
9951;DHT22;24074;49.254;6.702;2023-11-19T06:35:40;12.40;99.90
9951;DHT22;24074;49.254;6.702;2023-11-19T06:38:05;12.40;99.90
9951;DHT22;24074;49.254;6.702;2023-11-19T06:40:32;12.30;99.90
9951;DHT22;24074;49.254;6.702;2023-11-19T06:42:57;12.40;99.90
9951;DHT22;24074;49.254;6.702;2023-11-19T06:45:23;12.40;99.90
9951;DHT22;24074;49.254;6.702;2023-11-19T06:47:48;12.30;99.90
9951;DHT22;24074;49.254;6.702;2023-11-19T06:50:14;12.30;99.90
9951;DHT22;24074;49.254;6.702;2023-11-19T06:52:40;12.30;99.90
9951;DHT22;24074;49.254;6.702;2023-11-19T06:55:06;12.30;99.90
9951;DHT22;24074;49.254;6.702;2023-11-19T06:57:32;12.40;99.90
9951;DHT22;24074;49.254;6.702;2023-11-19T06:59:58;12.40;99.90
9951;DHT22;24074;49.254;6.702;2023-11-19T07:02:24;12.50;99.90
9951;DHT22;24074;49.254;6.702;2023-11-19T07:04:50;12.50;99.90
9951;DHT22;24074;49.254;6.702;2023-11-19T07:07:15;12.40;99.90
9951;DHT22;24074;49.254;6.702;2023-11-19T07:09:41;12.40;99.90
9951;DHT22;24074;49.254;6.702;2023-11-19T07:12:07;12.30;99.90
9951;DHT22;24074;49.254;6.702;2023-11-19T07:14:32;12.40;99.90
9951;DHT22;24074;49.254;6.702;2023-11-19T07:16:58;12.50;99.90
9951;DHT22;24074;49.254;6.702;2023-11-19T07:19:23;12.40;99.90
9951;DHT22;24074;49.254;6.702;2023-11-19T07:21:49;12.40;99.90
9951;DHT22;24074;49.254;6.702;2023-11-19T07:24:14;12.30;99.90
9951;DHT22;24074;49.254;6.702;2023-11-19T07:26:45;12.40;99.90
9951;DHT22;24074;49.254;6.702;2023-11-19T07:29:10;12.30;99.90
9951;DHT22;24074;49.254;6.702;2023-11-19T07:31:36;12.30;99.90
9951;DHT22;24074;49.254;6.702;2023-11-19T07:34:02;12.30;99.90
9951;DHT22;24074;49.254;6.702;2023-11-19T07:36:27;12.30;99.90
9951;DHT22;24074;49.254;6.702;2023-11-19T07:38:53;12.40;99.90
9951;DHT22;24074;49.254;6.702;2023-11-19T07:41:18;12.40;99.90
9951;DHT22;24074;49.254;6.702;2023-11-19T07:43:45;12.50;99.90
9951;DHT22;24074;49.254;6.702;2023-11-19T07:46:12;12.50;99.90
9951;DHT22;24074;49.254;6.702;2023-11-19T07:48:39;12.50;99.90
9951;DHT22;24074;49.254;6.702;2023-11-19T07:51:05;12.50;99.90
9951;DHT22;24074;49.254;6.702;2023-11-19T07:53:30;12.50;99.90
9951;DHT22;24074;49.254;6.702;2023-11-19T07:55:56;12.60;99.90
9951;DHT22;24074;49.254;6.702;2023-11-19T07:58:21;13.10;99.90
9951;DHT22;24074;49.254;6.702;2023-11-19T08:00:47;14.50;99.90
9951;DHT22;24074;49.254;6.702;2023-11-19T08:03:12;15.80;99.90
9951;DHT22;24074;49.254;6.702;2023-11-19T08:05:38;16.50;99.90
9951;DHT22;24074;49.254;6.702;2023-11-19T08:08:04;17.00;99.90
9951;DHT22;24074;49.254;6.702;2023-11-19T08:10:30;16.60;99.90
9951;DHT22;24074;49.254;6.702;2023-11-19T08:12:58;16.20;99.90
9951;DHT22;24074;49.254;6.702;2023-11-19T08:15:24;15.50;99.90
9951;DHT22;24074;49.254;6.702;2023-11-19T08:17:49;15.00;99.90
9951;DHT22;24074;49.254;6.702;2023-11-19T08:20:15;14.60;99.90
9951;DHT22;24074;49.254;6.702;2023-11-19T08:22:40;14.60;99.90
9951;DHT22;24074;49.254;6.702;2023-11-19T08:25:06;14.60;99.90
9951;DHT22;24074;49.254;6.702;2023-11-19T08:27:32;15.80;99.90
9951;DHT22;24074;49.254;6.702;2023-11-19T08:29:58;16.60;99.90
9951;DHT22;24074;49.254;6.702;2023-11-19T08:32:26;16.90;99.90
9951;DHT22;24074;49.254;6.702;2023-11-19T08:34:53;17.50;99.90
9951;DHT22;24074;49.254;6.702;2023-11-19T08:37:18;18.20;99.90
9951;DHT22;24074;49.254;6.702;2023-11-19T08:39:47;17.50;99.90
9951;DHT22;24074;49.254;6.702;2023-11-19T08:42:13;16.90;99.90
9951;DHT22;24074;49.254;6.702;2023-11-19T08:44:38;17.00;99.90
9951;DHT22;24074;49.254;6.702;2023-11-19T08:47:04;16.80;99.90
9951;DHT22;24074;49.254;6.702;2023-11-19T08:49:30;17.30;99.90
9951;DHT22;24074;49.254;6.702;2023-11-19T08:51:55;17.50;99.90
9951;DHT22;24074;49.254;6.702;2023-11-19T08:54:21;17.80;99.90
9951;DHT22;24074;49.254;6.702;2023-11-19T08:56:48;17.20;99.90
9951;DHT22;24074;49.254;6.702;2023-11-19T08:59:13;17.40;99.90
9951;DHT22;24074;49.254;6.702;2023-11-19T09:01:40;18.00;99.90
9951;DHT22;24074;49.254;6.702;2023-11-19T09:04:06;18.20;99.90
9951;DHT22;24074;49.254;6.702;2023-11-19T09:06:32;17.90;99.90
9951;DHT22;24074;49.254;6.702;2023-11-19T09:08:57;18.80;99.90
9951;DHT22;24074;49.254;6.702;2023-11-19T09:11:27;18.60;99.90
9951;DHT22;24074;49.254;6.702;2023-11-19T09:13:52;18.10;99.90
9951;DHT22;24074;49.254;6.702;2023-11-19T09:16:18;17.50;99.90
9951;DHT22;24074;49.254;6.702;2023-11-19T09:18:44;19.20;99.90
9951;DHT22;24074;49.254;6.702;2023-11-19T09:21:13;20.90;99.90
9951;DHT22;24074;49.254;6.702;2023-11-19T09:23:38;20.60;99.90
9951;DHT22;24074;49.254;6.702;2023-11-19T09:26:10;19.90;99.90
9951;DHT22;24074;49.254;6.702;2023-11-19T09:28:36;19.90;99.90
9951;DHT22;24074;49.254;6.702;2023-11-19T09:31:02;20.90;99.90
9951;DHT22;24074;49.254;6.702;2023-11-19T09:33:30;22.50;99.90
9951;DHT22;24074;49.254;6.702;2023-11-19T09:35:56;22.90;99.90
9951;DHT22;24074;49.254;6.702;2023-11-19T09:38:24;23.20;99.90
9951;DHT22;24074;49.254;6.702;2023-11-19T09:40:50;23.80;99.90
9951;DHT22;24074;49.254;6.702;2023-11-19T09:43:17;23.90;99.90
9951;DHT22;24074;49.254;6.702;2023-11-19T09:45:50;24.10;99.20
9951;DHT22;24074;49.254;6.702;2023-11-19T09:48:19;23.70;99.20
9951;DHT22;24074;49.254;6.702;2023-11-19T09:50:48;24.60;99.20
9951;DHT22;24074;49.254;6.702;2023-11-19T09:53:15;25.40;94.20
9951;DHT22;24074;49.254;6.702;2023-11-19T09:55:41;24.40;95.30
9951;DHT22;24074;49.254;6.702;2023-11-19T09:58:07;24.50;94.80
9951;DHT22;24074;49.254;6.702;2023-11-19T10:00:33;24.80;93.60
9951;DHT22;24074;49.254;6.702;2023-11-19T10:03:02;24.00;93.70
9951;DHT22;24074;49.254;6.702;2023-11-19T10:05:30;22.30;94.50
9951;DHT22;24074;49.254;6.702;2023-11-19T10:07:56;22.20;97.90
9951;DHT22;24074;49.254;6.702;2023-11-19T10:10:21;23.00;98.20
9951;DHT22;24074;49.254;6.702;2023-11-19T10:12:51;23.90;94.70
9951;DHT22;24074;49.254;6.702;2023-11-19T10:15:24;23.50;95.30
9951;DHT22;24074;49.254;6.702;2023-11-19T10:17:54;23.80;94.70
9951;DHT22;24074;49.254;6.702;2023-11-19T10:20:20;24.40;93.10
9951;DHT22;24074;49.254;6.702;2023-11-19T10:22:45;24.80;92.70
9951;DHT22;24074;49.254;6.702;2023-11-19T10:25:28;24.70;90.80
9951;DHT22;24074;49.254;6.702;2023-11-19T10:27:54;23.10;93.90
9951;DHT22;24074;49.254;6.702;2023-11-19T10:30:22;22.30;94.20
9951;DHT22;24074;49.254;6.702;2023-11-19T10:35:36;20.90;99.90
9951;DHT22;24074;49.254;6.702;2023-11-19T10:38:22;19.30;99.90
9951;DHT22;24074;49.254;6.702;2023-11-19T10:40:49;19.20;99.90
9951;DHT22;24074;49.254;6.702;2023-11-19T10:43:16;21.50;99.90
9951;DHT22;24074;49.254;6.702;2023-11-19T10:45:42;23.40;97.90
9951;DHT22;24074;49.254;6.702;2023-11-19T10:48:08;23.70;95.80
9951;DHT22;24074;49.254;6.702;2023-11-19T10:50:36;23.90;93.50
9951;DHT22;24074;49.254;6.702;2023-11-19T10:53:03;21.30;96.50
9951;DHT22;24074;49.254;6.702;2023-11-19T10:55:31;20.90;99.90
9951;DHT22;24074;49.254;6.702;2023-11-19T10:58:02;21.30;98.20
9951;DHT22;24074;49.254;6.702;2023-11-19T11:03:15;18.40;99.90
9951;DHT22;24074;49.254;6.702;2023-11-19T11:05:42;17.20;99.90
9951;DHT22;24074;49.254;6.702;2023-11-19T11:08:12;17.00;99.90
9951;DHT22;24074;49.254;6.702;2023-11-19T11:10:43;18.10;99.90
9951;DHT22;24074;49.254;6.702;2023-11-19T11:13:09;20.50;99.90
9951;DHT22;24074;49.254;6.702;2023-11-19T11:15:36;22.30;99.90
9951;DHT22;24074;49.254;6.702;2023-11-19T11:18:02;22.70;97.20
9951;DHT22;24074;49.254;6.702;2023-11-19T11:20:32;21.90;94.60
9951;DHT22;24074;49.254;6.702;2023-11-19T11:25:45;18.20;99.90
9951;DHT22;24074;49.254;6.702;2023-11-19T11:28:25;17.40;99.90
9951;DHT22;24074;49.254;6.702;2023-11-19T11:31:15;17.00;99.90
9951;DHT22;24074;49.254;6.702;2023-11-19T11:39:35;16.50;99.90
9951;DHT22;24074;49.254;6.702;2023-11-19T11:44:59;16.50;99.90
9951;DHT22;24074;49.254;6.702;2023-11-19T11:55:36;17.00;99.90
9951;DHT22;24074;49.254;6.702;2023-11-19T11:58:02;17.00;99.90
9951;DHT22;24074;49.254;6.702;2023-11-19T12:00:38;16.80;99.90
9951;DHT22;24074;49.254;6.702;2023-11-19T12:03:08;16.80;99.90
9951;DHT22;24074;49.254;6.702;2023-11-19T12:05:38;16.80;99.90
9951;DHT22;24074;49.254;6.702;2023-11-19T12:08:07;16.40;99.90
9951;DHT22;24074;49.254;6.702;2023-11-19T12:10:47;16.10;99.90
9951;DHT22;24074;49.254;6.702;2023-11-19T12:13:14;16.00;99.90
9951;DHT22;24074;49.254;6.702;2023-11-19T12:18:28;15.50;99.90
9951;DHT22;24074;49.254;6.702;2023-11-19T12:20:55;15.40;99.90
9951;DHT22;24074;49.254;6.702;2023-11-19T12:23:22;15.30;99.90
9951;DHT22;24074;49.254;6.702;2023-11-19T12:25:47;15.10;99.90
9951;DHT22;24074;49.254;6.702;2023-11-19T12:28:14;14.90;99.90
9951;DHT22;24074;49.254;6.702;2023-11-19T12:30:42;14.80;99.90
9951;DHT22;24074;49.254;6.702;2023-11-19T12:33:09;14.90;99.90
9951;DHT22;24074;49.254;6.702;2023-11-19T12:35:39;15.20;99.90
9951;DHT22;24074;49.254;6.702;2023-11-19T12:38:05;15.40;99.90
9951;DHT22;24074;49.254;6.702;2023-11-19T12:40:31;15.70;99.90
9951;DHT22;24074;49.254;6.702;2023-11-19T12:42:57;15.50;99.90
9951;DHT22;24074;49.254;6.702;2023-11-19T12:45:23;15.30;99.90
9951;DHT22;24074;49.254;6.702;2023-11-19T12:48:07;15.00;99.90
9951;DHT22;24074;49.254;6.702;2023-11-19T12:50:55;14.90;99.90
9951;DHT22;24074;49.254;6.702;2023-11-19T12:53:23;14.90;99.90
9951;DHT22;24074;49.254;6.702;2023-11-19T12:55:50;14.90;99.90
9951;DHT22;24074;49.254;6.702;2023-11-19T12:58:35;14.70;99.90
9951;DHT22;24074;49.254;6.702;2023-11-19T13:01:06;14.60;99.90
9951;DHT22;24074;49.254;6.702;2023-11-19T13:03:33;14.40;99.90
9951;DHT22;24074;49.254;6.702;2023-11-19T13:06:09;14.50;99.90
9951;DHT22;24074;49.254;6.702;2023-11-19T13:08:39;14.30;99.90
9951;DHT22;24074;49.254;6.702;2023-11-19T13:11:05;14.10;99.90
9951;DHT22;24074;49.254;6.702;2023-11-19T13:13:32;14.10;99.90
9951;DHT22;24074;49.254;6.702;2023-11-19T13:16:04;14.10;99.90
9951;DHT22;24074;49.254;6.702;2023-11-19T13:18:31;14.10;99.90
9951;DHT22;24074;49.254;6.702;2023-11-19T13:20:56;14.10;99.90
9951;DHT22;24074;49.254;6.702;2023-11-19T13:23:24;14.00;99.90
9951;DHT22;24074;49.254;6.702;2023-11-19T13:25:50;14.00;99.90
9951;DHT22;24074;49.254;6.702;2023-11-19T13:28:16;14.00;99.90
9951;DHT22;24074;49.254;6.702;2023-11-19T13:30:41;14.40;99.90
9951;DHT22;24074;49.254;6.702;2023-11-19T13:33:07;14.50;99.90
9951;DHT22;24074;49.254;6.702;2023-11-19T13:35:32;14.50;99.90
9951;DHT22;24074;49.254;6.702;2023-11-19T13:37:58;14.60;99.90
9951;DHT22;24074;49.254;6.702;2023-11-19T13:40:23;14.80;99.90
9951;DHT22;24074;49.254;6.702;2023-11-19T13:42:50;15.10;99.90
9951;DHT22;24074;49.254;6.702;2023-11-19T13:45:16;15.20;99.90
9951;DHT22;24074;49.254;6.702;2023-11-19T13:47:44;15.30;99.90
9951;DHT22;24074;49.254;6.702;2023-11-19T13:50:12;15.50;99.90
9951;DHT22;24074;49.254;6.702;2023-11-19T13:52:41;15.70;99.90
9951;DHT22;24074;49.254;6.702;2023-11-19T13:55:09;15.50;99.90
9951;DHT22;24074;49.254;6.702;2023-11-19T13:57:39;15.20;99.90
9951;DHT22;24074;49.254;6.702;2023-11-19T14:00:06;15.00;99.90
9951;DHT22;24074;49.254;6.702;2023-11-19T14:02:33;14.80;99.90
9951;DHT22;24074;49.254;6.702;2023-11-19T14:04:58;14.60;99.90
9951;DHT22;24074;49.254;6.702;2023-11-19T14:07:24;14.50;99.90
9951;DHT22;24074;49.254;6.702;2023-11-19T14:09:49;14.30;99.90
9951;DHT22;24074;49.254;6.702;2023-11-19T14:12:16;14.30;99.90
9951;DHT22;24074;49.254;6.702;2023-11-19T14:14:41;14.20;99.90
9951;DHT22;24074;49.254;6.702;2023-11-19T14:17:07;14.30;99.90
9951;DHT22;24074;49.254;6.702;2023-11-19T14:19:33;14.20;99.90
9951;DHT22;24074;49.254;6.702;2023-11-19T14:22:02;14.30;99.90
9951;DHT22;24074;49.254;6.702;2023-11-19T14:24:27;14.30;99.90
9951;DHT22;24074;49.254;6.702;2023-11-19T14:26:53;14.20;99.90
9951;DHT22;24074;49.254;6.702;2023-11-19T14:29:19;14.20;99.90
9951;DHT22;24074;49.254;6.702;2023-11-19T14:31:44;14.10;99.90
9951;DHT22;24074;49.254;6.702;2023-11-19T14:34:10;14.20;99.90
9951;DHT22;24074;49.254;6.702;2023-11-19T14:36:38;14.10;99.90
9951;DHT22;24074;49.254;6.702;2023-11-19T14:39:03;14.00;99.90
9951;DHT22;24074;49.254;6.702;2023-11-19T14:41:29;13.90;99.90
9951;DHT22;24074;49.254;6.702;2023-11-19T14:43:54;14.00;99.90
9951;DHT22;24074;49.254;6.702;2023-11-19T14:46:20;14.20;99.90
9951;DHT22;24074;49.254;6.702;2023-11-19T14:48:46;14.10;99.90
9951;DHT22;24074;49.254;6.702;2023-11-19T14:51:11;14.00;99.90
9951;DHT22;24074;49.254;6.702;2023-11-19T14:53:37;14.00;99.90
9951;DHT22;24074;49.254;6.702;2023-11-19T14:56:03;13.90;99.90
9951;DHT22;24074;49.254;6.702;2023-11-19T14:58:30;13.90;99.90
9951;DHT22;24074;49.254;6.702;2023-11-19T15:00:55;13.80;99.90
9951;DHT22;24074;49.254;6.702;2023-11-19T15:03:21;13.60;99.90
9951;DHT22;24074;49.254;6.702;2023-11-19T15:05:47;13.50;99.90
9951;DHT22;24074;49.254;6.702;2023-11-19T15:08:13;13.40;99.90
9951;DHT22;24074;49.254;6.702;2023-11-19T15:10:42;13.30;99.90
9951;DHT22;24074;49.254;6.702;2023-11-19T15:13:07;13.20;99.90
9951;DHT22;24074;49.254;6.702;2023-11-19T15:15:34;13.10;99.90
9951;DHT22;24074;49.254;6.702;2023-11-19T15:18:00;13.10;99.90
9951;DHT22;24074;49.254;6.702;2023-11-19T15:20:26;13.10;99.90
9951;DHT22;24074;49.254;6.702;2023-11-19T15:22:57;13.10;99.90
9951;DHT22;24074;49.254;6.702;2023-11-19T15:25:23;13.10;99.90
9951;DHT22;24074;49.254;6.702;2023-11-19T15:27:49;13.00;99.90
9951;DHT22;24074;49.254;6.702;2023-11-19T15:30:15;13.00;99.90
9951;DHT22;24074;49.254;6.702;2023-11-19T15:32:43;12.90;99.90
9951;DHT22;24074;49.254;6.702;2023-11-19T15:35:10;12.80;99.90
9951;DHT22;24074;49.254;6.702;2023-11-19T15:37:36;12.70;99.90
9951;DHT22;24074;49.254;6.702;2023-11-19T15:40:06;12.60;99.90
9951;DHT22;24074;49.254;6.702;2023-11-19T15:42:33;12.50;99.90
9951;DHT22;24074;49.254;6.702;2023-11-19T15:44:59;12.50;99.90
9951;DHT22;24074;49.254;6.702;2023-11-19T15:47:25;12.30;99.90
9951;DHT22;24074;49.254;6.702;2023-11-19T15:49:50;12.20;99.90
9951;DHT22;24074;49.254;6.702;2023-11-19T15:52:16;12.20;99.90
9951;DHT22;24074;49.254;6.702;2023-11-19T15:54:42;12.10;99.90
9951;DHT22;24074;49.254;6.702;2023-11-19T15:57:07;12.00;99.90
9951;DHT22;24074;49.254;6.702;2023-11-19T15:59:33;12.00;99.90
9951;DHT22;24074;49.254;6.702;2023-11-19T16:01:58;12.10;99.90
9951;DHT22;24074;49.254;6.702;2023-11-19T16:04:25;12.00;99.90
9951;DHT22;24074;49.254;6.702;2023-11-19T16:06:50;12.10;99.90
9951;DHT22;24074;49.254;6.702;2023-11-19T16:09:16;12.00;99.90
9951;DHT22;24074;49.254;6.702;2023-11-19T16:11:45;11.90;99.90
9951;DHT22;24074;49.254;6.702;2023-11-19T16:14:11;11.80;99.90
9951;DHT22;24074;49.254;6.702;2023-11-19T16:16:38;11.80;99.90